createdAt,value
2022-07-25T00:00:06.948Z,55.60
2022-07-25T00:02:35.184Z,55.70
2022-07-25T00:05:05.320Z,55.80
2022-07-25T00:07:33.421Z,55.90
2022-07-25T00:10:01.556Z,55.90
2022-07-25T00:12:31.761Z,56.00
2022-07-25T00:15:00.095Z,56.10
2022-07-25T00:17:28.311Z,56.20
2022-07-25T00:19:56.487Z,56.30
2022-07-25T00:22:25.994Z,56.40
2022-07-25T00:24:54.186Z,56.40
2022-07-25T00:27:22.329Z,56.50
2022-07-25T00:29:53.008Z,56.50
2022-07-25T00:32:21.109Z,56.60
2022-07-25T00:34:49.284Z,56.70
2022-07-25T00:37:17.445Z,56.80
2022-07-25T00:39:47.046Z,56.80
2022-07-25T00:42:15.221Z,56.90
2022-07-25T00:44:43.393Z,56.90
2022-07-25T00:47:11.506Z,57.00
2022-07-25T00:49:39.655Z,57.10
2022-07-25T00:52:07.970Z,57.10
2022-07-25T00:54:36.133Z,57.20
2022-07-25T00:57:05.814Z,57.30
2022-07-25T00:59:36.120Z,57.30
2022-07-25T01:02:04.597Z,57.30
2022-07-25T01:04:32.916Z,57.40
2022-07-25T01:07:01.088Z,57.40
2022-07-25T01:09:29.346Z,57.30
2022-07-25T01:11:57.608Z,57.40
2022-07-25T01:14:29.263Z,57.40
2022-07-25T01:16:59.503Z,57.40
2022-07-25T01:19:27.628Z,57.40
2022-07-25T01:21:57.136Z,57.40
2022-07-25T01:24:25.371Z,57.40
2022-07-25T01:26:53.560Z,57.40
2022-07-25T01:29:21.757Z,57.40
2022-07-25T01:31:50.064Z,57.40
2022-07-25T01:34:18.230Z,57.40
2022-07-25T01:36:48.270Z,57.40
2022-07-25T01:39:17.919Z,57.40
2022-07-25T01:41:46.479Z,57.40
2022-07-25T01:44:17.838Z,57.40
2022-07-25T01:46:46.162Z,57.40
2022-07-25T01:49:14.758Z,57.40
2022-07-25T01:51:45.485Z,57.30
2022-07-25T01:54:14.885Z,57.30
2022-07-25T01:56:47.081Z,57.30
2022-07-25T01:59:16.891Z,57.30
2022-07-25T02:01:48.241Z,57.90
2022-07-25T02:04:16.698Z,57.30
2022-07-25T02:06:44.949Z,57.30
2022-07-25T02:09:15.631Z,57.20
2022-07-25T02:11:45.212Z,57.20
2022-07-25T02:14:14.322Z,57.20
2022-07-25T02:16:44.535Z,57.20
2022-07-25T02:19:13.002Z,57.10
2022-07-25T02:21:41.200Z,57.20
2022-07-25T02:24:11.948Z,57.20
2022-07-25T02:26:40.245Z,57.30
2022-07-25T02:29:10.257Z,57.30
2022-07-25T02:31:38.600Z,57.30
2022-07-25T02:34:07.177Z,57.40
2022-07-25T02:36:35.780Z,57.30
2022-07-25T02:39:04.013Z,57.40
2022-07-25T02:41:32.769Z,57.40
2022-07-25T02:44:00.923Z,57.40
2022-07-25T02:46:30.752Z,57.40
2022-07-25T02:48:59.179Z,57.40
2022-07-25T02:51:33.402Z,57.30
2022-07-25T02:54:01.530Z,57.50
2022-07-25T02:56:31.979Z,57.60
2022-07-25T02:59:02.423Z,57.80
2022-07-25T03:01:32.316Z,57.90
2022-07-25T03:04:00.668Z,58.00
2022-07-25T03:06:31.920Z,58.10
2022-07-25T03:09:00.071Z,58.10
2022-07-25T03:11:28.352Z,58.10
2022-07-25T03:13:56.501Z,58.10
2022-07-25T03:16:24.852Z,58.10
2022-07-25T03:18:54.480Z,58.10
2022-07-25T03:21:22.751Z,58.10
2022-07-25T03:23:52.811Z,57.90
2022-07-25T03:26:21.377Z,58.00
2022-07-25T03:28:49.507Z,57.80
2022-07-25T03:31:17.771Z,57.80
2022-07-25T03:33:48.263Z,57.80
2022-07-25T03:36:17.867Z,57.70
2022-07-25T03:38:46.056Z,57.70
2022-07-25T03:41:16.995Z,57.70
2022-07-25T03:43:45.184Z,57.60
2022-07-25T03:46:13.462Z,57.60
2022-07-25T03:48:41.723Z,57.40
2022-07-25T03:51:12.498Z,57.30
2022-07-25T03:53:59.964Z,57.20
2022-07-25T03:56:28.322Z,56.90
2022-07-25T03:58:56.477Z,56.70
2022-07-25T04:01:24.807Z,56.50
2022-07-25T04:03:55.100Z,56.40
2022-07-25T04:06:25.597Z,56.20
2022-07-25T04:08:56.211Z,56.00
2022-07-25T04:11:24.437Z,55.80
2022-07-25T04:13:52.700Z,55.30
2022-07-25T04:16:22.471Z,55.70
2022-07-25T04:18:51.827Z,54.80
2022-07-25T04:21:20.104Z,54.80
2022-07-25T04:23:48.585Z,54.50
2022-07-25T04:26:18.503Z,54.30
2022-07-25T04:28:46.763Z,54.00
2022-07-25T04:31:15.178Z,54.20
2022-07-25T04:33:45.482Z,53.20
2022-07-25T04:36:13.584Z,52.60
2022-07-25T04:38:41.769Z,52.40
2022-07-25T04:41:12.339Z,52.00
2022-07-25T04:43:48.482Z,51.60
2022-07-25T04:46:19.418Z,51.10
2022-07-25T04:48:48.090Z,50.90
2022-07-25T04:51:16.591Z,50.60
2022-07-25T04:53:44.813Z,50.20
2022-07-25T04:56:12.851Z,49.80
2022-07-25T04:58:41.033Z,49.60
2022-07-25T05:01:10.881Z,49.10
2022-07-25T05:03:39.083Z,48.80
2022-07-25T05:06:07.785Z,48.50
2022-07-25T05:08:35.950Z,48.20
2022-07-25T05:11:06.937Z,48.00
2022-07-25T05:13:37.991Z,47.40
2022-07-25T05:16:08.739Z,47.20
2022-07-25T05:18:38.389Z,47.80
2022-07-25T05:21:06.491Z,47.00
2022-07-25T05:23:34.674Z,46.50
2022-07-25T05:26:02.705Z,46.30
2022-07-25T05:28:30.847Z,46.00
2022-07-25T05:30:59.256Z,46.30
2022-07-25T05:33:27.536Z,46.20
2022-07-25T05:35:57.110Z,45.80
2022-07-25T05:38:27.396Z,45.70
2022-07-25T05:40:55.622Z,45.60
2022-07-25T05:43:24.085Z,45.40
2022-07-25T05:45:52.217Z,44.60
2022-07-25T05:48:20.453Z,44.60
2022-07-25T05:50:48.550Z,44.70
2022-07-25T05:53:18.084Z,44.90
2022-07-25T05:55:46.312Z,44.90
2022-07-25T05:58:14.728Z,44.60
2022-07-25T06:00:42.968Z,44.20
2022-07-25T06:03:11.272Z,43.80
2022-07-25T06:05:39.430Z,43.70
2022-07-25T06:08:07.548Z,43.20
2022-07-25T06:10:37.027Z,43.10
2022-07-25T06:13:05.597Z,42.90
2022-07-25T06:15:36.250Z,42.50
2022-07-25T06:18:04.506Z,42.40
2022-07-25T06:20:37.135Z,42.20
2022-07-25T06:23:05.285Z,42.40
2022-07-25T06:25:33.430Z,42.60
2022-07-25T06:28:03.250Z,42.40
2022-07-25T06:30:31.503Z,42.30
2022-07-25T06:33:01.865Z,42.20
2022-07-25T06:35:55.391Z,42.20
2022-07-25T06:38:23.782Z,42.20
2022-07-25T06:40:51.879Z,42.00
2022-07-25T06:43:21.859Z,41.90
2022-07-25T06:45:50.605Z,42.80
2022-07-25T06:48:19.140Z,41.70
2022-07-25T06:50:50.122Z,42.00
2022-07-25T06:53:18.462Z,41.50
2022-07-25T06:55:46.720Z,41.20
2022-07-25T06:58:14.958Z,40.80
2022-07-25T07:00:46.938Z,40.70
2022-07-25T07:03:15.175Z,40.90
2022-07-25T07:05:43.308Z,41.20
2022-07-25T07:08:11.435Z,41.30
2022-07-25T07:10:42.743Z,41.50
2022-07-25T07:13:11.741Z,41.30
2022-07-25T07:15:47.246Z,40.80
2022-07-25T07:18:15.477Z,40.60
2022-07-25T07:20:44.081Z,40.30
2022-07-25T07:23:16.770Z,40.50
2022-07-25T07:25:47.099Z,40.60
2022-07-25T07:28:16.046Z,40.30
2022-07-25T07:33:35.858Z,40.20
2022-07-25T07:36:04.027Z,39.60
2022-07-25T07:38:34.628Z,39.60
2022-07-25T07:41:02.718Z,39.90
2022-07-25T07:43:32.027Z,39.80
2022-07-25T07:46:04.465Z,40.30
2022-07-25T07:48:33.369Z,39.80
2022-07-25T07:51:05.185Z,40.00
2022-07-25T07:53:51.288Z,40.00
2022-07-25T07:56:20.082Z,39.60
2022-07-25T07:58:48.602Z,39.30
2022-07-25T08:01:20.660Z,38.40
2022-07-25T08:03:48.843Z,37.40
2022-07-25T08:06:16.939Z,37.50
2022-07-25T08:08:45.210Z,37.70
2022-07-25T08:11:13.349Z,37.60
2022-07-25T08:13:41.445Z,37.60
2022-07-25T08:16:14.188Z,37.50
2022-07-25T08:18:43.796Z,37.60
2022-07-25T08:21:12.109Z,37.50
2022-07-25T08:23:40.919Z,37.40
2022-07-25T08:26:09.117Z,37.60
2022-07-25T08:28:37.281Z,37.20
2022-07-25T08:31:07.807Z,37.10
2022-07-25T08:33:35.986Z,37.10
2022-07-25T08:36:05.680Z,36.80
2022-07-25T08:38:35.490Z,36.90
2022-07-25T08:41:03.725Z,37.20
2022-07-25T08:43:33.108Z,37.20
2022-07-25T08:46:02.119Z,37.00
2022-07-25T08:48:30.853Z,37.00
2022-07-25T08:50:59.103Z,36.20
2022-07-25T08:53:33.157Z,36.40
2022-07-25T08:56:06.677Z,36.40
2022-07-25T08:58:38.662Z,36.20
2022-07-25T09:01:07.194Z,36.10
2022-07-25T09:03:36.455Z,34.90
2022-07-25T09:06:14.333Z,34.50
2022-07-25T09:08:53.404Z,34.50
2022-07-25T09:11:31.380Z,34.30
2022-07-25T09:14:05.136Z,34.20
2022-07-25T09:16:35.343Z,34.50
2022-07-25T09:19:12.761Z,34.50
2022-07-25T09:24:11.480Z,34.00
2022-07-25T09:26:46.535Z,34.80
2022-07-25T09:29:18.592Z,34.20
2022-07-25T09:31:47.240Z,34.20
2022-07-25T09:34:17.814Z,34.30
2022-07-25T09:36:54.594Z,33.80
2022-07-25T09:39:33.611Z,34.20
2022-07-25T09:42:01.804Z,33.60
2022-07-25T09:44:30.998Z,33.60
2022-07-25T09:46:59.999Z,33.60
2022-07-25T09:49:38.295Z,33.90
2022-07-25T09:54:36.331Z,34.30
2022-07-25T09:57:04.560Z,34.00
2022-07-25T09:59:33.656Z,33.90
2022-07-25T10:02:07.914Z,33.30
2022-07-25T10:04:42.905Z,33.30
2022-07-25T10:07:12.382Z,33.30
2022-07-25T10:09:44.270Z,33.40
2022-07-25T10:12:12.926Z,32.90
2022-07-25T10:14:41.178Z,33.20
2022-07-25T10:17:21.174Z,33.10
2022-07-25T10:19:53.152Z,33.00
2022-07-25T10:22:46.344Z,32.90
2022-07-25T10:25:15.079Z,32.60
2022-07-25T10:27:44.402Z,31.40
2022-07-25T10:30:21.416Z,31.70
2022-07-25T10:32:57.099Z,31.30
2022-07-25T10:35:25.855Z,30.40
2022-07-25T10:37:54.775Z,30.90
2022-07-25T10:40:28.171Z,30.30
2022-07-25T10:43:03.334Z,30.10
2022-07-25T10:45:42.457Z,30.30
2022-07-25T10:48:11.744Z,30.10
2022-07-25T10:50:57.401Z,30.30
2022-07-25T10:53:29.695Z,30.60
2022-07-25T10:56:06.198Z,30.70
2022-07-25T10:58:44.085Z,31.10
2022-07-25T11:01:14.208Z,31.60
2022-07-25T11:03:45.043Z,30.70
2022-07-25T11:06:14.973Z,30.60
2022-07-25T11:08:43.366Z,30.10
2022-07-25T11:11:12.928Z,30.50
2022-07-25T11:13:41.533Z,30.70
2022-07-25T11:16:10.456Z,31.00
2022-07-25T11:18:41.868Z,31.10
2022-07-25T11:21:10.401Z,31.40
2022-07-25T11:23:38.529Z,31.50
2022-07-25T11:26:10.223Z,31.30
2022-07-25T11:28:44.274Z,31.70
2022-07-25T11:31:13.245Z,31.80
2022-07-25T11:33:42.081Z,32.10
2022-07-25T11:36:11.204Z,32.10
2022-07-25T11:38:40.043Z,32.40
2022-07-25T11:41:10.226Z,32.20
2022-07-25T11:43:38.327Z,32.20
2022-07-25T11:46:08.494Z,32.40
2022-07-25T11:48:37.786Z,32.00
2022-07-25T11:51:13.603Z,32.10
2022-07-25T11:53:45.878Z,32.00
2022-07-25T11:56:42.372Z,32.00
2022-07-25T11:59:06.789Z,31.90
2022-07-25T12:01:37.395Z,31.50
2022-07-25T12:04:09.413Z,31.20
2022-07-25T12:06:37.483Z,31.10
2022-07-25T12:09:16.336Z,31.10
2022-07-25T12:11:50.088Z,30.80
2022-07-25T12:14:20.547Z,31.10
2022-07-25T12:16:50.255Z,31.30
2022-07-25T12:19:22.629Z,31.30
2022-07-25T12:21:50.795Z,31.50
2022-07-25T12:24:18.852Z,31.50
2022-07-25T12:26:46.986Z,31.90
2022-07-25T12:29:15.086Z,31.90
2022-07-25T12:31:43.220Z,31.90
2022-07-25T12:34:12.737Z,31.90
2022-07-25T12:36:44.178Z,31.60
2022-07-25T12:39:12.448Z,31.60
2022-07-25T12:41:42.683Z,31.70
2022-07-25T12:44:11.216Z,31.70
2022-07-25T12:46:47.163Z,31.80
2022-07-25T12:49:18.750Z,31.90
2022-07-25T12:51:46.922Z,32.10
2022-07-25T12:54:21.648Z,31.80
2022-07-25T12:56:50.499Z,31.90
2022-07-25T12:59:18.687Z,31.80
2022-07-25T13:01:46.943Z,31.80
2022-07-25T13:04:15.102Z,31.90
2022-07-25T13:06:44.633Z,32.00
2022-07-25T13:09:12.780Z,31.80
2022-07-25T13:11:42.399Z,32.00
2022-07-25T13:14:10.603Z,32.00
2022-07-25T13:16:38.780Z,32.10
2022-07-25T13:19:07.962Z,32.40
2022-07-25T13:21:37.450Z,32.70
2022-07-25T13:24:10.305Z,32.70
2022-07-25T13:26:38.968Z,33.00
2022-07-25T13:29:09.602Z,32.70
2022-07-25T13:31:38.283Z,32.40
2022-07-25T13:34:09.105Z,32.50
2022-07-25T13:36:38.155Z,32.70
2022-07-25T13:39:06.841Z,32.80
2022-07-25T13:41:36.584Z,33.00
2022-07-25T13:44:04.734Z,33.50
2022-07-25T13:46:33.272Z,33.60
2022-07-25T13:49:04.502Z,33.60
2022-07-25T13:51:32.845Z,33.40
2022-07-25T13:54:01.004Z,33.30
2022-07-25T13:56:29.106Z,33.40
2022-07-25T13:58:58.748Z,33.60
2022-07-25T14:01:28.766Z,33.40
2022-07-25T14:03:57.011Z,32.80
2022-07-25T14:06:25.145Z,32.70
2022-07-25T14:08:53.257Z,32.70
2022-07-25T14:11:21.530Z,32.60
2022-07-25T14:13:49.641Z,32.70
2022-07-25T14:16:20.241Z,32.80
2022-07-25T14:18:48.498Z,32.70
2022-07-25T14:21:16.670Z,32.50
2022-07-25T14:23:47.153Z,32.20
2022-07-25T14:26:17.607Z,32.10
2022-07-25T14:28:47.827Z,32.20
2022-07-25T14:31:16.016Z,32.40
2022-07-25T14:33:45.619Z,32.30
2022-07-25T14:36:13.780Z,32.30
2022-07-25T14:38:41.881Z,32.30
2022-07-25T14:41:13.109Z,32.40
2022-07-25T14:43:41.729Z,32.60
2022-07-25T14:46:11.960Z,32.90
2022-07-25T14:48:40.215Z,33.10
2022-07-25T14:51:09.782Z,33.40
2022-07-25T14:53:37.917Z,33.80
2022-07-25T14:56:06.693Z,34.10
2022-07-25T14:58:35.208Z,35.00
2022-07-25T15:01:06.064Z,34.50
2022-07-25T15:03:36.773Z,42.20
2022-07-25T15:06:06.678Z,48.80
2022-07-25T15:08:45.692Z,52.90
2022-07-25T15:11:13.838Z,56.70
2022-07-25T15:13:41.994Z,60.30
2022-07-25T15:16:10.230Z,63.20
2022-07-25T15:21:26.837Z,69.00
2022-07-25T15:23:57.520Z,72.80
2022-07-25T15:26:25.615Z,74.20
2022-07-25T15:28:56.017Z,75.60
2022-07-25T15:31:26.519Z,76.60
2022-07-25T15:33:54.879Z,78.70
2022-07-25T15:36:28.780Z,80.00
2022-07-25T15:38:59.060Z,81.10
2022-07-25T15:41:27.659Z,81.20
2022-07-25T15:43:55.837Z,79.80
2022-07-25T15:46:23.997Z,78.80
2022-07-25T15:48:52.278Z,78.70
2022-07-25T15:51:20.459Z,79.90
2022-07-25T15:53:48.536Z,80.90
2022-07-25T15:56:18.107Z,81.10
2022-07-25T15:58:49.121Z,82.00
2022-07-25T16:01:17.422Z,82.30
2022-07-25T16:03:45.684Z,82.80
2022-07-25T16:06:20.696Z,83.20
2022-07-25T16:08:50.146Z,83.70
2022-07-25T16:11:26.431Z,82.80
2022-07-25T16:13:56.985Z,82.60
2022-07-25T16:16:25.854Z,81.00
2022-07-25T16:18:54.112Z,77.20
2022-07-25T16:21:24.701Z,74.00
2022-07-25T16:23:53.015Z,73.20
2022-07-25T16:26:21.168Z,72.50
2022-07-25T16:28:53.101Z,71.90
2022-07-25T16:31:24.306Z,71.00
2022-07-25T16:33:52.487Z,70.30
2022-07-25T16:36:20.624Z,68.80
2022-07-25T16:41:17.374Z,65.80
2022-07-25T16:43:45.556Z,65.60
2022-07-25T16:48:43.630Z,64.20
2022-07-25T16:51:11.787Z,64.70
2022-07-25T16:53:39.944Z,64.80
2022-07-25T16:56:08.302Z,64.90
2022-07-25T16:58:36.569Z,64.90
2022-07-25T17:01:05.284Z,65.10
2022-07-25T17:03:33.433Z,65.60
2022-07-25T17:06:03.368Z,66.60
2022-07-25T17:08:32.833Z,67.80
2022-07-25T17:11:01.468Z,69.40
2022-07-25T17:13:29.590Z,67.70
2022-07-25T17:15:59.878Z,67.90
2022-07-25T17:18:28.469Z,68.10
2022-07-25T17:20:56.671Z,68.90
2022-07-25T17:23:26.236Z,70.00
2022-07-25T17:25:54.707Z,70.90
2022-07-25T17:28:22.804Z,71.30
2022-07-25T17:30:51.142Z,71.30
2022-07-25T17:33:19.276Z,71.50
2022-07-25T17:35:50.843Z,71.50
2022-07-25T17:38:23.755Z,71.80
2022-07-25T17:40:55.409Z,72.60
2022-07-25T17:43:23.522Z,73.30
2022-07-25T17:45:51.683Z,73.60
2022-07-25T17:48:19.810Z,73.70
2022-07-25T17:50:50.255Z,73.90
2022-07-25T17:53:18.967Z,75.00
2022-07-25T17:55:47.104Z,74.10
2022-07-25T17:58:18.853Z,74.00
2022-07-25T18:00:46.886Z,74.40
2022-07-25T18:03:15.047Z,74.50
2022-07-25T18:05:44.257Z,74.10
2022-07-25T18:08:12.318Z,73.60
2022-07-25T18:10:40.424Z,74.00
2022-07-25T18:13:10.945Z,74.10
2022-07-25T18:15:40.605Z,74.80
2022-07-25T18:18:10.498Z,75.90
2022-07-25T18:20:41.048Z,76.00
2022-07-25T18:23:09.197Z,75.60
2022-07-25T18:25:37.293Z,76.40
2022-07-25T18:28:06.411Z,77.30
2022-07-25T18:30:34.582Z,77.70
2022-07-25T18:33:04.223Z,77.80
2022-07-25T18:35:34.755Z,78.10
2022-07-25T18:38:02.840Z,78.20
2022-07-25T18:40:31.271Z,78.40
2022-07-25T18:42:59.322Z,78.40
2022-07-25T18:45:27.497Z,78.50
2022-07-25T18:47:55.665Z,78.40
2022-07-25T18:50:25.263Z,78.70
2022-07-25T18:52:53.344Z,78.60
2022-07-25T18:55:21.450Z,78.40
2022-07-25T18:57:49.985Z,78.80
2022-07-25T19:00:18.439Z,78.70
2022-07-25T19:02:46.725Z,78.90
2022-07-25T19:05:15.105Z,79.40
2022-07-25T19:07:47.070Z,79.60
2022-07-25T19:10:15.306Z,79.40
2022-07-25T19:12:45.975Z,79.30
2022-07-25T19:15:14.336Z,80.20
2022-07-25T19:17:42.573Z,79.70
2022-07-25T19:20:12.955Z,79.80
2022-07-25T19:22:43.437Z,80.20
2022-07-25T19:25:15.499Z,80.30
2022-07-25T19:27:43.643Z,80.20
2022-07-25T19:30:17.165Z,80.40
2022-07-25T19:32:46.198Z,80.90
2022-07-25T19:35:16.373Z,81.10
2022-07-25T19:37:44.466Z,81.40
2022-07-25T19:40:12.913Z,81.70
2022-07-25T19:42:43.272Z,81.90
2022-07-25T19:45:11.741Z,81.90
2022-07-25T19:47:42.203Z,82.20
2022-07-25T19:50:10.503Z,82.40
2022-07-25T19:52:40.777Z,82.60
2022-07-25T19:55:10.028Z,82.60
2022-07-25T19:57:38.196Z,82.70
2022-07-25T20:00:08.623Z,82.80
2022-07-25T20:02:40.613Z,83.10
2022-07-25T20:05:09.310Z,83.30
2022-07-25T20:07:37.425Z,83.50
2022-07-25T20:10:06.017Z,83.70
2022-07-25T20:12:34.563Z,83.70
2022-07-25T20:15:03.146Z,84.00
2022-07-25T20:17:32.607Z,84.30
2022-07-25T20:20:01.342Z,84.30
2022-07-25T20:22:31.482Z,84.40
2022-07-25T20:24:59.597Z,84.40
2022-07-25T20:27:27.685Z,84.10
2022-07-25T20:29:55.931Z,83.80
2022-07-25T20:32:24.000Z,83.80
2022-07-25T20:34:53.728Z,84.10
2022-07-25T20:37:21.773Z,84.10
2022-07-25T20:39:50.016Z,84.40
2022-07-25T20:42:18.157Z,84.70
2022-07-25T20:44:46.435Z,84.80
2022-07-25T20:47:16.106Z,84.80
2022-07-25T20:49:46.514Z,84.90
2022-07-25T20:52:16.095Z,84.90
2022-07-25T20:54:44.212Z,85.10
2022-07-25T20:57:14.040Z,85.10
2022-07-25T20:59:42.128Z,85.20
2022-07-25T21:02:11.502Z,84.90
2022-07-25T21:04:39.607Z,84.60
2022-07-25T21:07:07.724Z,85.00
2022-07-25T21:12:06.423Z,84.80
2022-07-25T21:14:34.595Z,85.10
2022-07-25T21:17:02.771Z,85.00
2022-07-25T21:19:30.989Z,84.90
2022-07-25T21:21:59.222Z,84.70
2022-07-25T21:24:29.935Z,84.60
2022-07-25T21:27:00.148Z,84.60
2022-07-25T21:29:29.706Z,84.50
2022-07-25T21:31:57.945Z,84.90
2022-07-25T21:34:26.105Z,85.30
2022-07-25T21:36:54.226Z,84.90
2022-07-25T21:39:22.424Z,84.70
2022-07-25T21:41:55.411Z,84.80
2022-07-25T21:44:23.760Z,84.90
2022-07-25T21:46:53.824Z,85.00
2022-07-25T21:49:41.015Z,84.80
2022-07-25T21:52:13.475Z,85.10
2022-07-25T21:54:42.411Z,85.20
2022-07-25T21:57:13.555Z,85.40
2022-07-25T21:59:42.413Z,85.70
2022-07-25T22:02:12.572Z,86.00
2022-07-25T22:04:40.814Z,86.50
2022-07-25T22:09:37.430Z,86.70
2022-07-25T22:12:05.771Z,87.60
2022-07-25T22:14:37.705Z,87.80
2022-07-25T22:17:06.365Z,88.20
2022-07-25T22:19:36.139Z,88.60
2022-07-25T22:22:06.263Z,88.60
2022-07-25T22:24:34.592Z,88.80
2022-07-25T22:27:05.863Z,89.00
2022-07-25T22:29:34.084Z,89.20
2022-07-25T22:32:02.335Z,89.30
2022-07-25T22:34:31.063Z,89.40
2022-07-25T22:37:00.520Z,89.70
2022-07-25T22:39:28.717Z,89.90
2022-07-25T22:41:57.100Z,89.90
2022-07-25T22:44:25.225Z,90.00
2022-07-25T22:46:53.366Z,90.00
2022-07-25T22:49:23.391Z,90.00
2022-07-25T22:51:51.656Z,90.00
2022-07-25T22:54:21.159Z,90.00
2022-07-25T22:56:49.379Z,90.00
2022-07-25T22:59:17.790Z,90.00
2022-07-25T23:01:48.181Z,90.00
2022-07-25T23:04:16.349Z,90.00
2022-07-25T23:06:44.735Z,90.00
2022-07-25T23:09:13.568Z,90.00
2022-07-25T23:11:43.025Z,89.80
2022-07-25T23:14:11.122Z,89.80
2022-07-25T23:16:39.182Z,89.90
2022-07-25T23:19:07.756Z,90.00
2022-07-25T23:21:36.253Z,90.00
2022-07-25T23:24:04.572Z,90.00
2022-07-25T23:26:35.486Z,90.00
2022-07-25T23:29:05.400Z,90.00
2022-07-25T23:31:33.830Z,90.10
2022-07-25T23:34:01.981Z,90.00
2022-07-25T23:36:30.166Z,90.30
2022-07-25T23:38:58.310Z,90.10
2022-07-25T23:41:26.454Z,90.30
2022-07-25T23:43:57.497Z,90.30
2022-07-25T23:46:31.004Z,90.30
2022-07-25T23:49:00.124Z,90.40
2022-07-25T23:51:28.373Z,90.40
2022-07-25T23:53:56.482Z,90.50
2022-07-25T23:56:24.689Z,90.50
2022-07-25T23:58:55.043Z,90.60
